Lemsford, United Kingdom
Current Conditions -  °F | °C
As of 6:20 AM on Monday 22 Dec 2014 (Local Time) from EGGW Reporting Station
Broken Clouds Broken Clouds  
Wind Chill: 54°   Ceiling: 1500
Heat Index: 54°   Visibility: 6mi
Dew Point: 50°   Wind: 30mph
Humidity: 88%   Direction: 240°WSW
Pressure: 30"   Gusts: 43mph
Location:  51.8°N, 0.21°W
Report Text: EGGW 220620Z 24026G37KT 9999 BKN015 12/10 Q1016
Loading
Personal Weather Stations






























Interactive Weather Map New forecast layout! Learn more

10-Day Weather Forecast

Advertisements
Track Severe Weather on mobile